Time;durP1;ratioP1;P1;durP2;ratioP2;P2;SDS_P1;SDS_P2;PMS_P1;PMS_P2;Temp;Humidity;BMP_temperature;BMP_pressure;BME280_temperature;BME280_humidity;BME280_pressure;Samples;Min_cycle;Max_cycle;Signal;HPM_P1;HPM_P2
2022/12/15 00:40:20;;;;;;;;;;;;;;;;;;5090836;28;20368;-60
2022/12/15 00:42:46;;;;;;;;;;;;;;;;;;5101498;28;19943;-60
2022/12/15 00:45:12;;;;;;;;;;;;;;;;;;5089845;28;19968;-60
2022/12/15 00:47:38;;;;;;;;;;;;;;;;;;5092568;28;19912;-59
2022/12/15 01:20:20;;;;;;;;;;;;;;;;;;5097258;28;19919;-60
2022/12/15 01:22:46;;;;;;;;;;;;;;;;;;5087031;28;19926;-60
2022/12/15 01:25:11;;;;;;;;;;;;;;;;;;5092189;28;20018;-60
2022/12/15 01:27:37;;;;;;;;;;;;;;;;;;5091767;28;19951;-59
2022/12/15 01:30:03;;;;;;;;;;;;;;;;;;5085507;28;19939;-60
2022/12/15 01:32:29;;;;;;;;;;;;;;;;;;5098007;28;19918;-60
2022/12/15 01:34:55;;;;;;;;;;;;;;;;;;5089178;28;20522;-60
2022/12/15 01:37:21;;;;;;;;;;;;;;;;;;5083191;28;19926;-60
2022/12/15 01:42:32;;;;;;;;;;;;;;;;;;5086090;28;20418;-60
2022/12/15 01:44:57;;;;;;;;;;;;;;;;;;5091037;28;20003;-59
2022/12/15 01:47:23;;;;;;;;;;;;;;;;;;5088942;28;19922;-59
2022/12/15 01:49:49;;;;;;;;;;;;;;;;;;5093756;28;19916;-60
2022/12/15 01:52:15;;;;;;;;;;;;;;;;;;5090034;28;19951;-60
2022/12/15 01:54:41;;;;;;;;;;;;;;;;;;5076662;28;20355;-60
2022/12/15 01:57:07;;;;;;;;;;;;;;;;;;5085115;28;19957;-59
2022/12/15 01:59:34;;;;;;;;;;;;;;;;;;5057147;28;20348;-60
2022/12/15 02:01:59;;;;;;;;;;;;;;;;;;5052700;28;20261;-59
2022/12/15 02:04:25;;;;;;;;;;;;;;;;;;5158303;22;20034;-79
2022/12/15 02:06:52;;;;;;;;;;;;;;;;;;5084717;28;19922;-79
2022/12/15 02:09:18;;;;;;;;;;;;;;;;;;5069197;28;19917;-79
2022/12/15 02:14:14;;;;;;;;;;;;;;;;;;5027321;28;19925;-58
2022/12/15 02:16:40;;;;;;;;;;;;;;;;;;5027047;28;19956;-58
2022/12/15 02:19:06;;;;;;;;;;;;;;;;;;5030003;28;19916;-58
2022/12/15 02:21:32;;;;;;;;;;;;;;;;;;5026036;28;20103;-58
2022/12/15 02:23:58;;;;;;;;;;;;;;;;;;5030995;28;19917;-58
2022/12/15 02:26:24;;;;;;;;;;;;;;;;;;5029365;28;19913;-57
2022/12/15 02:28:50;;;;;;;;;;;;;;;;;;5028516;28;19996;-58
2022/12/15 02:34:01;;;;;;;;;;;;;;;;;;5032477;28;20366;-57
2022/12/15 02:36:26;;;;;;;;;;;;;;;;;;5031341;28;19957;-58
2022/12/15 02:38:52;;;;;;;;;;;;;;;;;;5031882;28;19920;-57
2022/12/15 02:41:18;;;;;;;;;;;;;;;;;;5031286;28;20286;-57
2022/12/15 02:43:44;;;;;;;;;;;;;;;;;;5031582;28;20017;-57
2022/12/15 02:46:10;;;;;;;;;;;;;;;;;;5031145;28;19917;-57
2022/12/15 02:48:36;;;;;;;;;;;;;;;;;;5033152;28;19955;-57
2022/12/15 02:51:02;;;;;;;;;;;;;;;;;;5031881;28;19921;-57
2022/12/15 02:53:28;;;;;;;;;;;;;;;;;;5032333;28;20426;-58
2022/12/15 02:55:54;;;;;;;;;;;;;;;;;;5031204;28;20047;-58
2022/12/15 02:58:19;;;;;;;;;;;;;;;;;;5033693;28;19913;-57
2022/12/15 03:00:45;;;;;;;;;;;;;;;;;;5032002;28;19955;-58
2022/12/15 03:03:11;;;;;;;;;;;;;;;;;;5031478;28;20015;-58
2022/12/15 03:05:37;;;;;;;;;;;;;;;;;;5019219;28;19996;-58
2022/12/15 03:08:03;;;;;;;;;;;;;;;;;;5034975;28;19913;-58
2022/12/15 03:10:29;;;;;;;;;;;;;;;;;;5032678;28;19917;-58
2022/12/15 03:12:55;;;;;;;;;;;;;;;;;;5032294;28;19957;-59
2022/12/15 03:15:21;;;;;;;;;;;;;;;;;;5032661;28;20394;-58
2022/12/15 03:17:47;;;;;;;;;;;;;;;;;;5033045;28;19923;-57
2022/12/15 03:20:13;;;;;;;;;;;;;;;;;;5029412;28;19913;-58
2022/12/15 03:22:39;;;;;;;;;;;;;;;;;;5030202;28;19967;-62
2022/12/15 03:25:05;;;;;;;;;;;;;;;;;;5032189;28;19913;-57
2022/12/15 03:27:31;;;;;;;;;;;;;;;;;;5032460;28;19944;-58
2022/12/15 03:29:57;;;;;;;;;;;;;;;;;;5026775;28;19960;-59
2022/12/15 03:32:22;;;;;;;;;;;;;;;;;;5028448;28;20054;-60
2022/12/15 03:34:48;;;;;;;;;;;;;;;;;;5029274;28;19929;-58
2022/12/15 03:37:14;;;;;;;;;;;;;;;;;;5029499;28;19982;-58
2022/12/15 03:39:40;;;;;;;;;;;;;;;;;;5030670;28;20261;-58
2022/12/15 03:42:06;;;;;;;;;;;;;;;;;;5030528;28;19970;-58
2022/12/15 03:44:32;;;;;;;;;;;;;;;;;;5033341;28;19921;-57
2022/12/15 03:46:58;;;;;;;;;;;;;;;;;;5032716;28;20352;-58
2022/12/15 03:49:24;;;;;;;;;;;;;;;;;;5030717;28;19992;-58
2022/12/15 03:51:51;;;;;;;;;;;;;;;;;;5031767;28;20074;-58
2022/12/15 03:54:17;;;;;;;;;;;;;;;;;;5030125;28;20335;-58
2022/12/15 03:56:43;;;;;;;;;;;;;;;;;;5032114;28;20000;-58
2022/12/15 03:59:09;;;;;;;;;;;;;;;;;;5032978;28;19913;-58
2022/12/15 04:01:35;;;;;;;;;;;;;;;;;;5029328;28;20334;-57
2022/12/15 04:04:01;;;;;;;;;;;;;;;;;;5030602;28;19996;-58
2022/12/15 04:06:26;;;;;;;;;;;;;;;;;;5031238;28;19951;-57
2022/12/15 04:08:52;;;;;;;;;;;;;;;;;;5019154;28;19963;-57
2022/12/15 04:11:18;;;;;;;;;;;;;;;;;;5028218;28;20007;-59
2022/12/15 04:13:44;;;;;;;;;;;;;;;;;;5031337;28;19921;-59
2022/12/15 04:16:10;;;;;;;;;;;;;;;;;;5031842;28;19952;-57
2022/12/15 04:18:36;;;;;;;;;;;;;;;;;;5025890;28;19917;-58
2022/12/15 04:21:02;;;;;;;;;;;;;;;;;;5030266;28;19913;-57
2022/12/15 04:23:28;;;;;;;;;;;;;;;;;;5031068;28;19921;-57
2022/12/15 05:31:54;;;;;;;;;;;;;;;;;;5024158;28;20409;-57
2022/12/15 05:34:20;;;;;;;;;;;;;;;;;;5029259;28;20592;-57
2022/12/15 05:36:46;;;;;;;;;;;;;;;;;;5027536;28;19986;-60
2022/12/15 05:39:12;;;;;;;;;;;;;;;;;;5029605;28;20877;-58
2022/12/15 05:41:37;;;;;;;;;;;;;;;;;;5027505;28;19927;-58
2022/12/15 05:44:03;;;;;;;;;;;;;;;;;;5029848;28;19951;-58
2022/12/15 05:46:29;;;;;;;;;;;;;;;;;;5030004;28;19913;-59
2022/12/15 05:48:55;;;;;;;;;;;;;;;;;;5027758;28;19960;-58
2022/12/15 05:51:21;;;;;;;;;;;;;;;;;;5029210;28;19952;-57
2022/12/15 05:53:47;;;;;;;;;;;;;;;;;;5030657;28;19959;-57
2022/12/15 05:56:13;;;;;;;;;;;;;;;;;;5028776;28;19952;-57
2022/12/15 05:58:39;;;;;;;;;;;;;;;;;;5025621;28;19960;-58
2022/12/15 06:01:05;;;;;;;;;;;;;;;;;;5024239;28;19948;-57
2022/12/15 06:03:31;;;;;;;;;;;;;;;;;;5024222;28;20018;-58
2022/12/15 06:05:57;;;;;;;;;;;;;;;;;;5025202;28;19927;-58
2022/12/15 06:08:23;;;;;;;;;;;;;;;;;;5029020;28;20082;-59
2022/12/15 06:10:49;;;;;;;;;;;;;;;;;;5026368;28;20075;-59
2022/12/15 06:13:14;;;;;;;;;;;;;;;;;;5027805;28;19955;-59
2022/12/15 06:15:40;;;;;;;;;;;;;;;;;;5020121;28;19917;-57
2022/12/15 06:18:06;;;;;;;;;;;;;;;;;;5027712;28;19940;-58
2022/12/15 06:20:32;;;;;;;;;;;;;;;;;;5026668;28;19948;-59
2022/12/15 06:22:58;;;;;;;;;;;;;;;;;;5029105;28;20380;-59
2022/12/15 06:25:24;;;;;;;;;;;;;;;;;;5029053;28;19920;-58
2022/12/15 06:27:50;;;;;;;;;;;;;;;;;;5030804;28;20376;-58
2022/12/15 06:30:17;;;;;;;;;;;;;;;;;;5029235;28;20003;-58
2022/12/15 06:32:42;;;;;;;;;;;;;;;;;;5025983;28;19914;-58
2022/12/15 06:35:08;;;;;;;;;;;;;;;;;;5028262;28;19973;-59
2022/12/15 06:37:34;;;;;;;;;;;;;;;;;;5011636;28;20402;-58
2022/12/15 06:40:00;;;;;;;;;;;;;;;;;;5025142;28;19913;-57
2022/12/15 06:42:26;;;;;;;;;;;;;;;;;;5027017;28;20292;-59
2022/12/15 06:44:52;;;;;;;;;;;;;;;;;;5028010;28;19955;-59
2022/12/15 06:47:18;;;;;;;;;;;;;;;;;;5026545;28;19971;-57
2022/12/15 06:49:44;;;;;;;;;;;;;;;;;;5027387;28;19935;-60
2022/12/15 06:52:11;;;;;;;;;;;;;;;;;;5026071;28;19952;-58
2022/12/15 06:54:37;;;;;;;;;;;;;;;;;;5027336;28;19952;-58
2022/12/15 06:57:03;;;;;;;;;;;;;;;;;;5023003;28;19913;-58
2022/12/15 06:59:29;;;;;;;;;;;;;;;;;;5028672;28;19955;-59
2022/12/15 07:01:55;;;;;;;;;;;;;;;;;;5024505;28;19932;-57
2022/12/15 07:04:21;;;;;;;;;;;;;;;;;;5026158;28;19976;-57
2022/12/15 07:06:48;;;;;;;;;;;;;;;;;;5027922;28;20410;-57
2022/12/15 07:09:15;;;;;;;;;;;;;;;;;;5025603;28;19913;-58
2022/12/15 07:11:41;;;;;;;;;;;;;;;;;;5026836;28;19920;-58
2022/12/15 07:14:07;;;;;;;;;;;;;;;;;;5024509;28;19921;-58
2022/12/15 07:16:33;;;;;;;;;;;;;;;;;;5027741;28;20010;-58
2022/12/15 07:18:59;;;;;;;;;;;;;;;;;;5031001;28;20376;-57
2022/12/15 07:21:25;;;;;;;;;;;;;;;;;;5030843;28;19956;-58
2022/12/15 07:23:51;;;;;;;;;;;;;;;;;;5030460;28;19921;-57
2022/12/15 07:26:16;;;;;;;;;;;;;;;;;;5030743;28;20067;-57
2022/12/15 07:28:42;;;;;;;;;;;;;;;;;;5030340;28;20388;-58
2022/12/15 07:31:09;;;;;;;;;;;;;;;;;;5030682;28;19917;-57
2022/12/15 07:33:35;;;;;;;;;;;;;;;;;;5033723;28;19920;-57
2022/12/15 07:36:01;;;;;;;;;;;;;;;;;;5027847;28;19929;-58
2022/12/15 07:38:27;;;;;;;;;;;;;;;;;;5029462;28;19996;-59
2022/12/15 07:40:53;;;;;;;;;;;;;;;;;;5032085;28;19957;-57
2022/12/15 07:43:20;;;;;;;;;;;;;;;;;;5010818;28;19987;-60
2022/12/15 07:45:46;;;;;;;;;;;;;;;;;;5026188;28;19921;-58
2022/12/15 07:48:11;;;;;;;;;;;;;;;;;;5031844;28;20351;-59
2022/12/15 07:50:38;;;;;;;;;;;;;;;;;;5032493;28;19917;-59
2022/12/15 07:53:04;;;;;;;;;;;;;;;;;;5028796;28;19917;-58
2022/12/15 07:55:31;;;;;;;;;;;;;;;;;;5030916;28;19952;-58
2022/12/15 07:57:57;;;;;;;;;;;;;;;;;;5029122;28;20131;-57
2022/12/15 08:00:23;;;;;;;;;;;;;;;;;;5030397;28;19979;-58
2022/12/15 08:02:49;;;;;;;;;;;;;;;;;;5030543;28;20016;-58
2022/12/15 08:05:14;;;;;;;;;;;;;;;;;;5032629;28;19917;-58
2022/12/15 08:07:40;;;;;;;;;;;;;;;;;;5030787;28;19953;-58
2022/12/15 08:10:06;;;;;;;;;;;;;;;;;;5030490;28;19923;-58
2022/12/15 08:12:32;;;;;;;;;;;;;;;;;;5026564;28;19921;-57
2022/12/15 08:14:58;;;;;;;;;;;;;;;;;;5021800;28;20442;-58
2022/12/15 08:17:24;;;;;;;;;;;;;;;;;;5029618;28;19917;-59
2022/12/15 08:19:50;;;;;;;;;;;;;;;;;;5030929;28;20239;-58
2022/12/15 08:22:16;;;;;;;;;;;;;;;;;;5030106;28;19921;-57
2022/12/15 08:24:42;;;;;;;;;;;;;;;;;;5030401;28;20402;-58
2022/12/15 08:27:08;;;;;;;;;;;;;;;;;;5031397;28;19913;-58
2022/12/15 08:29:34;;;;;;;;;;;;;;;;;;5030322;28;19917;-58
2022/12/15 08:32:00;;;;;;;;;;;;;;;;;;5027036;28;20368;-57
2022/12/15 08:34:26;;;;;;;;;;;;;;;;;;5032891;28;19956;-58
2022/12/15 08:36:52;;;;;;;;;;;;;;;;;;5030470;28;19996;-58
2022/12/15 08:39:18;;;;;;;;;;;;;;;;;;5032511;28;19957;-59
2022/12/15 08:41:44;;;;;;;;;;;;;;;;;;5027114;28;20457;-58
2022/12/15 08:44:10;;;;;;;;;;;;;;;;;;5028028;28;19995;-58
2022/12/15 08:46:35;;;;;;;;;;;;;;;;;;5026812;28;20431;-59
2022/12/15 08:49:01;;;;;;;;;;;;;;;;;;5031128;28;19949;-58
2022/12/15 08:51:27;;;;;;;;;;;;;;;;;;5027924;28;19923;-58
2022/12/15 08:53:53;;;;;;;;;;;;;;;;;;5031127;28;19913;-59
2022/12/15 08:56:19;;;;;;;;;;;;;;;;;;5027983;28;19917;-59
2022/12/15 08:58:45;;;;;;;;;;;;;;;;;;5029141;28;19958;-58
2022/12/15 09:01:11;;;;;;;;;;;;;;;;;;5024299;28;20364;-58
2022/12/15 09:03:37;;;;;;;;;;;;;;;;;;5026152;28;19928;-58
2022/12/15 09:06:03;;;;;;;;;;;;;;;;;;5027852;28;20357;-58
2022/12/15 09:08:29;;;;;;;;;;;;;;;;;;5021025;28;19916;-57
2022/12/15 09:10:55;;;;;;;;;;;;;;;;;;5027129;28;20284;-58
2022/12/15 09:13:21;;;;;;;;;;;;;;;;;;5024162;28;19925;-58
2022/12/15 09:15:47;;;;;;;;;;;;;;;;;;5027960;28;19964;-58
2022/12/15 09:18:13;;;;;;;;;;;;;;;;;;5026979;28;19948;-58
2022/12/15 09:20:39;;;;;;;;;;;;;;;;;;5027599;28;19917;-58
2022/12/15 09:23:05;;;;;;;;;;;;;;;;;;5032018;28;19963;-57
2022/12/15 09:25:31;;;;;;;;;;;;;;;;;;5030372;28;20383;-59
2022/12/15 09:27:56;;;;;;;;;;;;;;;;;;5027892;28;19995;-58
2022/12/15 09:30:22;;;;;;;;;;;;;;;;;;5029607;28;20291;-59
2022/12/15 09:32:48;;;;;;;;;;;;;;;;;;5030619;28;19959;-60
2022/12/15 09:35:16;;;;;;;;;;;;;;;;;;5030646;28;19982;-58
2022/12/15 09:37:42;;;;;;;;;;;;;;;;;;5027367;28;19913;-58
2022/12/15 09:40:08;;;;;;;;;;;;;;;;;;5023156;28;19964;-58
2022/12/15 09:42:33;;;;;;;;;;;;;;;;;;5027806;28;19924;-58
2022/12/15 09:44:59;;;;;;;;;;;;;;;;;;5024874;28;20360;-58
2022/12/15 09:47:25;;;;;;;;;;;;;;;;;;5029624;28;19960;-58
2022/12/15 09:49:51;;;;;;;;;;;;;;;;;;5024993;28;20364;-57
2022/12/15 09:52:17;;;;;;;;;;;;;;;;;;5029859;28;19921;-57
2022/12/15 09:54:43;;;;;;;;;;;;;;;;;;5028311;28;20561;-58
2022/12/15 09:57:09;;;;;;;;;;;;;;;;;;5028021;28;19952;-58
2022/12/15 09:59:35;;;;;;;;;;;;;;;;;;5029649;28;19917;-59
2022/12/15 10:02:01;;;;;;;;;;;;;;;;;;5025647;28;20372;-59
2022/12/15 10:04:27;;;;;;;;;;;;;;;;;;5030005;28;19917;-60
2022/12/15 10:06:53;;;;;;;;;;;;;;;;;;5026861;28;20008;-58
2022/12/15 10:09:19;;;;;;;;;;;;;;;;;;5030053;28;19935;-58
2022/12/15 10:11:45;;;;;;;;;;;;;;;;;;5030563;28;19917;-58
2022/12/15 10:14:11;;;;;;;;;;;;;;;;;;5025142;28;19952;-57
2022/12/15 10:16:37;;;;;;;;;;;;;;;;;;5023805;28;19919;-57
2022/12/15 10:19:03;;;;;;;;;;;;;;;;;;5025195;28;19986;-58
2022/12/15 10:21:29;;;;;;;;;;;;;;;;;;5025470;28;19927;-58
2022/12/15 10:23:55;;;;;;;;;;;;;;;;;;5029013;28;19927;-58
2022/12/15 10:26:22;;;;;;;;;;;;;;;;;;5028697;28;19913;-58
2022/12/15 10:28:48;;;;;;;;;;;;;;;;;;5026276;28;19921;-59
2022/12/15 10:31:13;;;;;;;;;;;;;;;;;;5027364;28;20368;-58
2022/12/15 10:33:39;;;;;;;;;;;;;;;;;;5020782;28;19927;-58
2022/12/15 10:36:06;;;;;;;;;;;;;;;;;;5027474;28;20276;-58
2022/12/15 10:38:32;;;;;;;;;;;;;;;;;;5025389;28;19996;-59
2022/12/15 10:40:58;;;;;;;;;;;;;;;;;;5030337;28;20122;-58
2022/12/15 10:43:24;;;;;;;;;;;;;;;;;;5025602;28;19921;-58
2022/12/15 10:45:50;;;;;;;;;;;;;;;;;;5031348;28;20010;-58
2022/12/15 10:48:15;;;;;;;;;;;;;;;;;;5030986;28;19944;-58
2022/12/15 10:50:41;;;;;;;;;;;;;;;;;;5030704;28;19916;-58
2022/12/15 10:53:07;;;;;;;;;;;;;;;;;;5031578;28;20040;-57
2022/12/15 10:55:33;;;;;;;;;;;;;;;;;;5024101;28;19915;-58
2022/12/15 10:57:59;;;;;;;;;;;;;;;;;;5032515;28;19948;-58
2022/12/15 11:00:26;;;;;;;;;;;;;;;;;;5033766;28;19919;-59
2022/12/15 11:02:52;;;;;;;;;;;;;;;;;;5033920;28;19917;-59
2022/12/15 11:05:18;;;;;;;;;;;;;;;;;;5033858;28;19956;-59
2022/12/15 11:07:44;;;;;;;;;;;;;;;;;;5031995;28;20003;-59
2022/12/15 11:10:10;;;;;;;;;;;;;;;;;;5034062;28;20013;-59
2022/12/15 11:12:51;;;;;;;;;;;;;;;;;;5031934;28;20387;-60
2022/12/15 11:15:17;;;;;;;;;;;;;;;;;;5032589;28;20285;-60
2022/12/15 11:17:43;;;;;;;;;;;;;;;;;;5021180;28;19917;-59
2022/12/15 11:20:10;;;;;;;;;;;;;;;;;;5034340;28;19984;-59
2022/12/15 11:22:35;;;;;;;;;;;;;;;;;;5033951;28;19968;-59
2022/12/15 11:25:01;;;;;;;;;;;;;;;;;;5033125;28;19998;-59
2022/12/15 11:27:27;;;;;;;;;;;;;;;;;;5031086;28;19971;-59
2022/12/15 11:29:54;;;;;;;;;;;;;;;;;;5033286;28;19971;-59
2022/12/15 11:32:20;;;;;;;;;;;;;;;;;;5034159;28;19992;-58
2022/12/15 11:34:46;;;;;;;;;;;;;;;;;;5034206;28;20009;-59
2022/12/15 11:37:11;;;;;;;;;;;;;;;;;;5033859;28;20333;-58
2022/12/15 11:39:37;;;;;;;;;;;;;;;;;;5034163;28;19917;-59
2022/12/15 11:42:03;;;;;;;;;;;;;;;;;;5033836;28;19913;-58
2022/12/15 11:44:29;;;;;;;;;;;;;;;;;;5032020;28;19959;-59
2022/12/15 11:46:55;;;;;;;;;;;;;;;;;;5033560;28;20003;-58
2022/12/15 11:49:21;;;;;;;;;;;;;;;;;;5034186;28;20265;-58
2022/12/15 11:51:47;;;;;;;;;;;;;;;;;;5033731;28;19917;-59
2022/12/15 11:54:13;;;;;;;;;;;;;;;;;;5030200;28;19913;-59
2022/12/15 11:56:39;;;;;;;;;;;;;;;;;;5033080;28;20356;-59
2022/12/15 11:59:05;;;;;;;;;;;;;;;;;;5033981;28;19913;-59
2022/12/15 12:01:31;;;;;;;;;;;;;;;;;;5032355;28;20036;-60
2022/12/15 12:03:57;;;;;;;;;;;;;;;;;;5032345;28;19919;-59
2022/12/15 12:06:23;;;;;;;;;;;;;;;;;;5033869;28;20017;-59
2022/12/15 12:08:49;;;;;;;;;;;;;;;;;;5031690;28;19917;-59
2022/12/15 12:11:15;;;;;;;;;;;;;;;;;;5033321;28;20335;-59
2022/12/15 12:13:41;;;;;;;;;;;;;;;;;;5033243;28;19960;-59
2022/12/15 12:16:08;;;;;;;;;;;;;;;;;;5028652;28;19999;-59
2022/12/15 12:18:34;;;;;;;;;;;;;;;;;;5029663;28;20288;-59
2022/12/15 12:21:00;;;;;;;;;;;;;;;;;;5033248;28;19994;-59
2022/12/15 12:23:25;;;;;;;;;;;;;;;;;;5033079;28;19965;-60
2022/12/15 12:25:51;;;;;;;;;;;;;;;;;;5033108;28;20309;-60
2022/12/15 12:28:17;;;;;;;;;;;;;;;;;;5033368;28;19913;-63
2022/12/15 12:30:43;;;;;;;;;;;;;;;;;;5032100;28;19935;-60
2022/12/15 12:33:09;;;;;;;;;;;;;;;;;;5033427;28;19915;-59
2022/12/15 12:35:36;;;;;;;;;;;;;;;;;;5031401;28;19921;-58
2022/12/15 12:38:02;;;;;;;;;;;;;;;;;;5032829;28;20335;-59
2022/12/15 12:40:28;;;;;;;;;;;;;;;;;;5032560;28;19955;-58
2022/12/15 12:42:54;;;;;;;;;;;;;;;;;;5033049;28;19964;-58
2022/12/15 12:45:19;;;;;;;;;;;;;;;;;;5030442;28;20016;-58
2022/12/15 12:47:46;;;;;;;;;;;;;;;;;;5033165;28;19913;-58
2022/12/15 12:50:12;;;;;;;;;;;;;;;;;;5032499;28;19917;-58
2022/12/15 12:52:38;;;;;;;;;;;;;;;;;;5032519;28;19956;-58
2022/12/15 12:55:04;;;;;;;;;;;;;;;;;;5014279;28;19975;-58
2022/12/15 12:57:29;;;;;;;;;;;;;;;;;;5032831;28;20005;-59
2022/12/15 12:59:55;;;;;;;;;;;;;;;;;;5030952;28;20323;-58
2022/12/15 13:02:24;;;;;;;;;;;;;;;;;;5025035;28;19913;-58
2022/12/15 13:04:50;;;;;;;;;;;;;;;;;;5025421;28;20025;-58
2022/12/15 13:07:16;;;;;;;;;;;;;;;;;;5028034;28;20409;-59
2022/12/15 13:09:42;;;;;;;;;;;;;;;;;;5032520;28;19909;-58
2022/12/15 13:12:08;;;;;;;;;;;;;;;;;;5029750;28;19923;-58
2022/12/15 13:14:33;;;;;;;;;;;;;;;;;;5032344;28;19925;-57
2022/12/15 13:16:59;;;;;;;;;;;;;;;;;;5026277;28;20011;-58
2022/12/15 13:19:25;;;;;;;;;;;;;;;;;;5032357;28;20383;-58
2022/12/15 13:21:51;;;;;;;;;;;;;;;;;;5029868;28;19966;-58
2022/12/15 13:24:18;;;;;;;;;;;;;;;;;;5031767;28;20637;-58
2022/12/15 13:26:44;;;;;;;;;;;;;;;;;;5031551;28;19924;-58
2022/12/15 13:29:09;;;;;;;;;;;;;;;;;;5029414;28;20383;-58
2022/12/15 13:31:35;;;;;;;;;;;;;;;;;;5031290;28;19941;-58
2022/12/15 13:34:01;;;;;;;;;;;;;;;;;;5031950;28;20058;-57
2022/12/15 13:36:27;;;;;;;;;;;;;;;;;;5031825;28;19962;-58
2022/12/15 13:38:53;;;;;;;;;;;;;;;;;;5018882;28;19909;-58
2022/12/15 13:41:19;;;;;;;;;;;;;;;;;;5031654;28;20368;-58
2022/12/15 13:43:45;;;;;;;;;;;;;;;;;;5032164;28;19913;-58
2022/12/15 13:46:11;;;;;;;;;;;;;;;;;;5029087;28;19913;-58
2022/12/15 13:48:37;;;;;;;;;;;;;;;;;;5031877;28;19936;-58
2022/12/15 13:51:03;;;;;;;;;;;;;;;;;;5031830;28;19913;-57
2022/12/15 13:53:29;;;;;;;;;;;;;;;;;;5030971;28;19932;-57
2022/12/15 13:55:55;;;;;;;;;;;;;;;;;;5023306;28;19928;-58
2022/12/15 13:58:21;;;;;;;;;;;;;;;;;;5026151;28;19952;-58
2022/12/15 14:00:47;;;;;;;;;;;;;;;;;;5029052;28;19955;-57
2022/12/15 14:03:13;;;;;;;;;;;;;;;;;;5025734;28;19983;-58
2022/12/15 14:05:41;;;;;;;;;;;;;;;;;;5026133;28;19959;-58
2022/12/15 14:08:07;;;;;;;;;;;;;;;;;;5029859;28;20288;-58
2022/12/15 14:10:33;;;;;;;;;;;;;;;;;;5028629;28;19953;-58
2022/12/15 14:12:59;;;;;;;;;;;;;;;;;;5028841;28;19925;-58
2022/12/15 14:15:25;;;;;;;;;;;;;;;;;;5024331;28;20356;-58
2022/12/15 14:17:51;;;;;;;;;;;;;;;;;;5003408;28;20439;-58
2022/12/15 14:20:17;;;;;;;;;;;;;;;;;;5028961;28;19921;-58
2022/12/15 14:22:43;;;;;;;;;;;;;;;;;;5027360;28;20016;-57
2022/12/15 14:25:09;;;;;;;;;;;;;;;;;;5027397;28;20420;-58
2022/12/15 14:27:34;;;;;;;;;;;;;;;;;;5031377;28;19961;-59
2022/12/15 14:30:00;;;;;;;;;;;;;;;;;;5027234;28;20287;-58
2022/12/15 14:32:26;;;;;;;;;;;;;;;;;;5033522;28;19920;-59
2022/12/15 14:34:52;;;;;;;;;;;;;;;;;;5033152;28;19991;-59
2022/12/15 14:37:18;;;;;;;;;;;;;;;;;;5036182;28;19944;-58
2022/12/15 14:39:45;;;;;;;;;;;;;;;;;;5032552;28;19917;-58
2022/12/15 14:42:10;;;;;;;;;;;;;;;;;;5032959;28;19921;-58
2022/12/15 14:44:36;;;;;;;;;;;;;;;;;;5014275;28;20437;-57
2022/12/15 14:47:02;;;;;;;;;;;;;;;;;;5036524;28;19992;-57
2022/12/15 14:49:28;;;;;;;;;;;;;;;;;;5028006;28;20590;-57
2022/12/15 14:51:54;;;;;;;;;;;;;;;;;;5034872;28;20379;-58
2022/12/15 14:54:20;;;;;;;;;;;;;;;;;;5026687;28;19942;-57
2022/12/15 14:56:46;;;;;;;;;;;;;;;;;;5032747;28;19913;-57
2022/12/15 14:59:12;;;;;;;;;;;;;;;;;;5033508;28;19953;-58
2022/12/15 15:01:40;;;;;;;;;;;;;;;;;;5028717;28;20007;-58
2022/12/15 15:04:06;;;;;;;;;;;;;;;;;;5034726;28;19917;-58
2022/12/15 15:06:32;;;;;;;;;;;;;;;;;;5035906;28;20002;-58
2022/12/15 15:08:58;;;;;;;;;;;;;;;;;;5036485;28;19960;-59
2022/12/15 15:11:28;;;;;;;;;;;;;;;;;;5034294;28;20354;-59
2022/12/15 15:13:55;;;;;;;;;;;;;;;;;;5029298;28;21531;-58
2022/12/15 15:16:21;;;;;;;;;;;;;;;;;;5034496;28;20686;-58
2022/12/15 15:18:47;;;;;;;;;;;;;;;;;;5033818;28;19953;-58
2022/12/15 15:21:13;;;;;;;;;;;;;;;;;;5036643;28;19909;-59
2022/12/15 15:23:39;;;;;;;;;;;;;;;;;;5036221;28;20452;-59
2022/12/15 15:26:05;;;;;;;;;;;;;;;;;;5036860;28;19956;-60
2022/12/15 15:28:31;;;;;;;;;;;;;;;;;;5034055;28;19956;-60
2022/12/15 15:30:59;;;;;;;;;;;;;;;;;;5036028;28;20397;-60
2022/12/15 15:33:25;;;;;;;;;;;;;;;;;;5035193;28;19917;-60
2022/12/15 15:35:51;;;;;;;;;;;;;;;;;;5036236;28;20016;-60
2022/12/15 15:38:17;;;;;;;;;;;;;;;;;;5030446;28;19924;-60
2022/12/15 15:40:43;;;;;;;;;;;;;;;;;;5030163;28;19960;-59
2022/12/15 15:43:09;;;;;;;;;;;;;;;;;;5029656;28;19989;-60
2022/12/15 15:45:35;;;;;;;;;;;;;;;;;;5030056;28;19917;-59
2022/12/15 15:48:01;;;;;;;;;;;;;;;;;;5032434;28;19919;-60
2022/12/15 15:50:27;;;;;;;;;;;;;;;;;;5027540;28;20337;-59
2022/12/15 15:52:53;;;;;;;;;;;;;;;;;;5028125;28;20007;-60
2022/12/15 15:55:19;;;;;;;;;;;;;;;;;;5030872;28;20009;-60
2022/12/15 15:57:45;;;;;;;;;;;;;;;;;;5032139;28;19963;-60
2022/12/15 16:00:11;;;;;;;;;;;;;;;;;;5025898;28;20015;-60
2022/12/15 16:02:36;;;;;;;;;;;;;;;;;;5029495;28;19913;-60
2022/12/15 16:05:02;;;;;;;;;;;;;;;;;;5029472;28;20558;-59
2022/12/15 16:07:28;;;;;;;;;;;;;;;;;;5029948;28;20008;-59
2022/12/15 16:09:54;;;;;;;;;;;;;;;;;;5032760;28;19909;-60
2022/12/15 16:12:20;;;;;;;;;;;;;;;;;;5032674;28;19917;-60
2022/12/15 16:14:46;;;;;;;;;;;;;;;;;;5027912;28;19944;-59
2022/12/15 16:17:12;;;;;;;;;;;;;;;;;;5028835;28;19956;-59
2022/12/15 16:19:38;;;;;;;;;;;;;;;;;;5027107;28;19963;-59
2022/12/15 16:22:04;;;;;;;;;;;;;;;;;;5029797;28;19979;-60
2022/12/15 16:24:30;;;;;;;;;;;;;;;;;;5019950;28;19963;-59
2022/12/15 16:26:57;;;;;;;;;;;;;;;;;;5024160;28;19913;-60
2022/12/15 16:29:22;;;;;;;;;;;;;;;;;;5030177;28;20387;-59
2022/12/15 16:31:49;;;;;;;;;;;;;;;;;;5029271;28;20022;-60
2022/12/15 16:34:23;;;;;;;;;;;;;;;;;;5031094;28;19913;-60
2022/12/15 16:36:49;;;;;;;;;;;;;;;;;;5026210;28;19917;-60
2022/12/15 16:39:15;;;;;;;;;;;;;;;;;;5032973;28;20460;-60
2022/12/15 16:41:41;;;;;;;;;;;;;;;;;;5032407;28;19917;-60
2022/12/15 16:44:07;;;;;;;;;;;;;;;;;;5030327;28;20299;-60
2022/12/15 16:46:33;;;;;;;;;;;;;;;;;;5032879;28;19945;-60
2022/12/15 16:48:58;;;;;;;;;;;;;;;;;;5032423;28;19913;-60
2022/12/15 16:51:24;;;;;;;;;;;;;;;;;;5029296;28;19959;-60
2022/12/15 16:53:50;;;;;;;;;;;;;;;;;;5025423;28;19921;-59
2022/12/15 16:56:16;;;;;;;;;;;;;;;;;;5014407;28;20378;-59
2022/12/15 16:58:42;;;;;;;;;;;;;;;;;;5032676;28;19913;-59
2022/12/15 17:01:08;;;;;;;;;;;;;;;;;;5030007;28;20410;-60
2022/12/15 17:03:34;;;;;;;;;;;;;;;;;;5030984;28;19971;-59
2022/12/15 17:06:00;;;;;;;;;;;;;;;;;;5030070;28;19917;-60
2022/12/15 17:08:26;;;;;;;;;;;;;;;;;;5027976;28;19917;-60
2022/12/15 17:10:52;;;;;;;;;;;;;;;;;;5019749;28;20004;-59
2022/12/15 17:13:18;;;;;;;;;;;;;;;;;;5029323;28;20281;-60
2022/12/15 17:15:44;;;;;;;;;;;;;;;;;;5028300;28;19928;-59
2022/12/15 17:18:10;;;;;;;;;;;;;;;;;;5027302;28;20658;-60
2022/12/15 17:20:36;;;;;;;;;;;;;;;;;;5028819;28;20012;-60
2022/12/15 17:23:02;;;;;;;;;;;;;;;;;;5029481;28;19972;-59
2022/12/15 17:25:28;;;;;;;;;;;;;;;;;;5029543;28;20003;-59
2022/12/15 17:27:55;;;;;;;;;;;;;;;;;;5029314;28;19992;-60
2022/12/15 17:30:20;;;;;;;;;;;;;;;;;;5029368;28;19924;-59
2022/12/15 17:32:47;;;;;;;;;;;;;;;;;;5031829;28;19952;-60
2022/12/15 17:35:13;;;;;;;;;;;;;;;;;;5029378;28;19913;-60
2022/12/15 17:37:39;;;;;;;;;;;;;;;;;;5008439;28;19927;-59
2022/12/15 17:40:05;;;;;;;;;;;;;;;;;;5031620;28;19913;-60
2022/12/15 17:42:31;;;;;;;;;;;;;;;;;;5031846;28;19924;-60
2022/12/15 17:44:57;;;;;;;;;;;;;;;;;;5028446;28;20036;-60
2022/12/15 17:47:24;;;;;;;;;;;;;;;;;;5025489;28;19952;-60
2022/12/15 17:49:50;;;;;;;;;;;;;;;;;;5024595;28;19921;-60
2022/12/15 17:52:16;;;;;;;;;;;;;;;;;;5029423;28;19956;-58
2022/12/15 17:54:41;;;;;;;;;;;;;;;;;;5029601;28;20012;-60
2022/12/15 17:57:07;;;;;;;;;;;;;;;;;;5028087;28;19913;-60
2022/12/15 17:59:33;;;;;;;;;;;;;;;;;;5029301;28;19971;-59
2022/12/15 18:01:59;;;;;;;;;;;;;;;;;;5024147;28;20377;-60
2022/12/15 18:04:25;;;;;;;;;;;;;;;;;;5030119;28;20418;-60
2022/12/15 18:06:51;;;;;;;;;;;;;;;;;;5029890;28;19978;-59
2022/12/15 18:09:17;;;;;;;;;;;;;;;;;;5029558;28;19948;-59
2022/12/15 18:11:45;;;;;;;;;;;;;;;;;;5022254;28;19913;-60
2022/12/15 18:14:11;;;;;;;;;;;;;;;;;;5018269;28;19922;-59
2022/12/15 18:16:37;;;;;;;;;;;;;;;;;;5016129;28;19951;-60
2022/12/15 18:19:03;;;;;;;;;;;;;;;;;;5017850;28;19913;-60
2022/12/15 18:21:29;;;;;;;;;;;;;;;;;;5022367;28;19928;-60
2022/12/15 18:23:54;;;;;;;;;;;;;;;;;;5023826;28;20017;-58
2022/12/15 18:26:20;;;;;;;;;;;;;;;;;;5022528;28;19913;-59
2022/12/15 18:28:48;;;;;;;;;;;;;;;;;;5020700;28;19909;-57
2022/12/15 18:31:14;;;;;;;;;;;;;;;;;;5021532;28;19913;-59
2022/12/15 18:33:40;;;;;;;;;;;;;;;;;;5029461;28;19960;-59
2022/12/15 18:36:06;;;;;;;;;;;;;;;;;;5028453;28;19945;-60
2022/12/15 18:38:32;;;;;;;;;;;;;;;;;;5027334;28;19913;-60
2022/12/15 18:40:57;;;;;;;;;;;;;;;;;;5029784;28;19971;-60
2022/12/15 18:43:23;;;;;;;;;;;;;;;;;;5026037;28;19971;-60
2022/12/15 18:45:49;;;;;;;;;;;;;;;;;;5020042;28;19913;-59
2022/12/15 18:48:15;;;;;;;;;;;;;;;;;;5030642;28;19917;-60
2022/12/15 18:50:41;;;;;;;;;;;;;;;;;;5026058;28;19949;-60
2022/12/15 18:53:07;;;;;;;;;;;;;;;;;;5020556;28;19956;-60
2022/12/15 18:55:33;;;;;;;;;;;;;;;;;;5026602;28;19967;-59
2022/12/15 18:58:00;;;;;;;;;;;;;;;;;;5024221;28;20373;-59
2022/12/15 19:00:26;;;;;;;;;;;;;;;;;;5024608;28;20376;-60